createdAt,value
2023-08-07T00:02:01.187Z,99653.69
2023-08-07T00:04:27.957Z,99656.56
2023-08-07T00:06:54.705Z,99623.88
2023-08-07T00:09:21.422Z,99634.59
2023-08-07T00:11:48.159Z,99645.50
2023-08-07T00:14:14.944Z,99645.66
2023-08-07T00:16:42.566Z,99650.19
2023-08-07T00:19:09.384Z,99655.53
2023-08-07T00:21:36.894Z,99651.22
2023-08-07T00:24:03.823Z,99638.66
2023-08-07T00:26:30.768Z,99650.19
2023-08-07T00:28:57.521Z,99635.13
2023-08-07T00:31:24.318Z,99633.28
2023-08-07T00:33:54.944Z,99633.44
2023-08-07T00:36:21.637Z,99629.13
2023-08-07T00:38:48.327Z,99644.53
2023-08-07T00:41:18.302Z,99651.88
2023-08-07T00:43:45.088Z,99646.72
2023-08-07T00:46:11.844Z,99650.41
2023-08-07T00:48:38.668Z,99641.53
2023-08-07T00:51:06.105Z,99649.41
2023-08-07T00:53:32.901Z,99645.22
2023-08-07T00:55:59.740Z,99654.09
2023-08-07T00:58:26.772Z,99651.41
2023-08-07T01:00:53.590Z,99653.25
2023-08-07T01:03:20.439Z,99646.41
2023-08-07T01:05:47.238Z,99648.75
2023-08-07T01:08:14.274Z,99654.09
2023-08-07T01:11:13.242Z,99652.09
2023-08-07T01:14:17.329Z,99652.44
2023-08-07T01:16:52.022Z,99659.31
2023-08-07T01:19:28.060Z,99655.13
2023-08-07T01:22:13.350Z,99656.31
2023-08-07T01:24:41.522Z,99659.13
2023-08-07T01:27:28.857Z,99656.31
2023-08-07T01:30:34.098Z,99656.97
2023-08-07T01:33:19.475Z,99663.00
2023-08-07T01:35:48.761Z,99667.69
2023-08-07T01:38:15.867Z,99660.69
2023-08-07T01:40:43.144Z,99652.44
2023-08-07T01:43:09.830Z,99656.63
2023-08-07T01:45:36.779Z,99667.03
2023-08-07T01:48:03.902Z,99678.75
2023-08-07T01:50:31.071Z,99684.47
2023-08-07T01:52:58.917Z,99673.09
2023-08-07T01:55:25.635Z,99672.72
2023-08-07T01:57:53.139Z,99673.91
2023-08-07T02:00:20.612Z,99665.88
2023-08-07T02:02:48.149Z,99681.44
2023-08-07T02:05:15.737Z,99668.72
2023-08-07T02:07:42.814Z,99670.56
2023-08-07T02:10:10.083Z,99667.06
2023-08-07T02:12:36.951Z,99673.25
2023-08-07T02:15:04.088Z,99675.25
2023-08-07T02:17:32.066Z,99680.44
2023-08-07T02:19:59.184Z,99680.44
2023-08-07T02:22:26.052Z,99675.25
2023-08-07T02:24:52.773Z,99675.25
2023-08-07T02:27:19.502Z,99687.97
2023-08-07T02:29:47.621Z,99684.47
2023-08-07T02:32:14.392Z,99681.63
2023-08-07T02:34:41.225Z,99689.81
2023-08-07T02:37:07.988Z,99695.66
2023-08-07T02:39:34.803Z,99686.78
2023-08-07T02:42:01.693Z,99683.13
2023-08-07T02:44:28.484Z,99695.00
2023-08-07T02:46:55.438Z,99696.50
2023-08-07T02:49:22.796Z,99698.50
2023-08-07T02:51:49.582Z,99689.97
2023-08-07T02:54:16.315Z,99694.16
2023-08-07T02:56:43.161Z,99704.38
2023-08-07T02:59:10.027Z,99702.53
2023-08-07T03:01:36.739Z,99707.22
2023-08-07T03:04:03.668Z,99704.53
2023-08-07T03:06:30.431Z,99695.53
2023-08-07T03:08:57.174Z,99706.22
2023-08-07T03:11:23.901Z,99701.84
2023-08-07T03:13:50.642Z,99703.03
2023-08-07T03:16:17.542Z,99698.69
2023-08-07T03:18:44.471Z,99700.56
2023-08-07T03:21:11.209Z,99703.03
2023-08-07T03:23:37.971Z,99710.22
2023-08-07T03:28:42.133Z,99705.22
2023-08-07T03:31:09.395Z,99707.06
2023-08-07T03:33:37.554Z,99720.47
2023-08-07T03:36:05.110Z,99719.13
2023-08-07T03:38:33.080Z,99719.94
2023-08-07T03:41:00.391Z,99720.81
2023-08-07T03:43:28.543Z,99724.31
2023-08-07T03:46:02.137Z,99719.94
2023-08-07T03:48:30.971Z,99721.78
2023-08-07T03:51:11.837Z,99710.94
2023-08-07T03:53:45.093Z,99714.94
2023-08-07T03:56:11.831Z,99720.28
2023-08-07T03:58:38.684Z,99719.47
2023-08-07T04:01:06.506Z,99714.94
2023-08-07T04:03:33.455Z,99715.78
2023-08-07T04:06:02.847Z,99723.63
2023-08-07T04:08:29.636Z,99729.16
2023-08-07T04:11:04.070Z,99729.00
2023-08-07T04:13:32.128Z,99745.75
2023-08-07T04:15:59.551Z,99740.69
2023-08-07T04:18:26.758Z,99742.38
2023-08-07T04:20:57.106Z,99748.25
2023-08-07T04:23:24.348Z,99740.69
2023-08-07T04:25:52.976Z,99746.41
2023-08-07T04:28:19.928Z,99743.72
2023-08-07T04:30:51.046Z,99749.06
2023-08-07T04:33:17.861Z,99749.25
2023-08-07T04:35:44.673Z,99743.91
2023-08-07T04:38:11.468Z,99736.03
2023-08-07T04:40:38.945Z,99743.38
2023-08-07T04:43:05.659Z,99750.09
2023-08-07T04:45:32.323Z,99754.75
2023-08-07T04:47:59.203Z,99755.78
2023-08-07T04:50:25.902Z,99756.59
2023-08-07T04:52:52.618Z,99755.94
2023-08-07T04:55:19.384Z,99762.47
2023-08-07T04:57:47.557Z,99759.63
2023-08-07T05:00:14.753Z,99765.47
2023-08-07T05:02:41.682Z,99771.81
2023-08-07T05:05:10.143Z,99774.47
2023-08-07T05:07:36.918Z,99770.63
2023-08-07T05:10:03.881Z,99764.66
2023-08-07T05:12:30.664Z,99770.81
2023-08-07T05:14:57.415Z,99775.84
2023-08-07T05:17:24.240Z,99770.00
2023-08-07T05:19:50.994Z,99769.31
2023-08-07T05:22:17.755Z,99772.81
2023-08-07T05:24:45.948Z,99772.97
2023-08-07T05:27:12.808Z,99777.34
2023-08-07T05:29:44.999Z,99777.16
2023-08-07T05:32:16.028Z,99779.50
2023-08-07T05:34:42.925Z,99772.97
2023-08-07T05:37:09.705Z,99786.34
2023-08-07T05:39:36.941Z,99788.03
2023-08-07T05:42:04.091Z,99787.22
2023-08-07T05:44:31.043Z,99790.03
2023-08-07T05:46:57.880Z,99794.22
2023-08-07T05:49:26.232Z,99786.19
2023-08-07T05:51:54.401Z,99793.88
2023-08-07T05:54:21.699Z,99793.88
2023-08-07T05:56:48.634Z,99794.72
2023-08-07T05:59:16.293Z,99799.22
2023-08-07T06:01:43.109Z,99800.06
2023-08-07T06:04:10.222Z,99805.59
2023-08-07T06:06:37.349Z,99806.28
2023-08-07T06:09:04.992Z,99813.63
2023-08-07T06:11:32.130Z,99813.28
2023-08-07T06:13:59.069Z,99814.78
2023-08-07T06:16:25.956Z,99810.44
2023-08-07T06:18:53.152Z,99816.13
2023-08-07T06:21:21.061Z,99824.16
2023-08-07T06:23:48.040Z,99809.09
2023-08-07T06:26:14.799Z,99821.50
2023-08-07T06:28:42.751Z,99828.50
2023-08-07T06:31:10.742Z,99827.66
2023-08-07T06:33:38.118Z,99826.50
2023-08-07T06:36:05.260Z,99828.16
2023-08-07T06:38:32.287Z,99826.50
2023-08-07T06:40:59.209Z,99824.66
2023-08-07T06:43:26.232Z,99840.56
2023-08-07T06:45:54.436Z,99834.19
2023-08-07T06:48:21.221Z,99826.66
2023-08-07T06:50:48.869Z,99836.38
2023-08-07T06:53:15.728Z,99828.00
2023-08-07T06:55:42.915Z,99831.69
2023-08-07T06:58:10.043Z,99834.03
2023-08-07T07:00:37.491Z,99843.38
2023-08-07T07:03:05.012Z,99843.22
2023-08-07T07:05:31.960Z,99841.53
2023-08-07T07:07:59.033Z,99848.72
2023-08-07T07:10:25.889Z,99853.25
2023-08-07T07:12:53.344Z,99857.78
2023-08-07T07:15:20.130Z,99863.13
2023-08-07T07:17:46.959Z,99855.25
2023-08-07T07:20:13.924Z,99857.09
2023-08-07T07:22:40.715Z,99864.13
2023-08-07T07:25:08.053Z,99865.81
2023-08-07T07:27:34.886Z,99864.78
2023-08-07T07:30:01.758Z,99861.97
2023-08-07T07:32:30.746Z,99860.78
2023-08-07T07:34:57.652Z,99869.50
2023-08-07T07:37:24.438Z,99867.47
2023-08-07T07:39:51.152Z,99865.47
2023-08-07T07:42:17.984Z,99871.50
2023-08-07T07:44:44.685Z,99878.84
2023-08-07T07:47:14.053Z,99876.50
2023-08-07T07:49:48.824Z,99873.19
2023-08-07T07:52:15.840Z,99884.72
2023-08-07T07:54:43.011Z,99891.59
2023-08-07T07:57:09.747Z,99888.91
2023-08-07T07:59:36.570Z,99890.28
2023-08-07T08:02:03.433Z,99896.94
2023-08-07T08:04:30.547Z,99893.75
2023-08-07T08:06:57.461Z,99898.97
2023-08-07T08:09:24.281Z,99904.31
2023-08-07T08:11:51.110Z,99908.16
2023-08-07T08:14:17.894Z,99905.84
2023-08-07T08:16:44.588Z,99908.81
2023-08-07T08:19:11.428Z,99904.47
2023-08-07T08:21:38.232Z,99904.97
2023-08-07T08:24:05.536Z,99918.06
2023-08-07T08:26:32.471Z,99922.53
2023-08-07T08:28:59.203Z,99933.44
2023-08-07T08:31:26.331Z,99932.09
2023-08-07T08:33:53.104Z,99934.63
2023-08-07T08:36:19.963Z,99935.09
2023-08-07T08:38:49.131Z,99939.97
2023-08-07T08:41:16.372Z,99937.28
2023-08-07T08:43:44.230Z,99947.81
2023-08-07T08:46:13.024Z,99945.13
2023-08-07T08:48:40.297Z,99947.16
2023-08-07T08:51:07.455Z,99944.50
2023-08-07T08:53:34.841Z,99955.03
2023-08-07T08:56:02.995Z,99949.84
2023-08-07T08:58:29.976Z,99954.19
2023-08-07T09:00:56.913Z,99955.34
2023-08-07T09:03:25.013Z,99954.84
2023-08-07T09:05:54.624Z,99948.66
2023-08-07T09:08:22.893Z,99951.16
2023-08-07T09:10:49.937Z,99958.03
2023-08-07T09:13:19.360Z,99958.53
2023-08-07T09:15:51.521Z,99959.88
2023-08-07T09:18:20.233Z,99957.19
2023-08-07T09:20:47.086Z,99960.06
2023-08-07T09:23:14.089Z,99959.88
2023-08-07T09:25:40.848Z,99969.59
2023-08-07T09:28:07.847Z,99965.91
2023-08-07T09:30:36.991Z,99964.03
2023-08-07T09:33:04.189Z,99948.97
2023-08-07T09:35:34.861Z,99960.84
2023-08-07T09:38:02.563Z,99967.91
2023-08-07T09:40:30.585Z,99970.91
2023-08-07T09:42:57.449Z,99963.88
2023-08-07T09:45:25.663Z,99967.22
2023-08-07T09:48:01.472Z,99980.47
2023-08-07T09:50:29.128Z,99978.25
2023-08-07T09:52:56.857Z,99984.78
2023-08-07T09:55:23.850Z,99984.63
2023-08-07T09:57:51.254Z,99976.75
2023-08-07T10:00:21.215Z,99979.41
2023-08-07T10:02:49.698Z,99984.47
2023-08-07T10:05:17.744Z,99974.56
2023-08-07T10:07:44.667Z,99985.78
2023-08-07T10:10:11.728Z,99992.13
2023-08-07T10:12:39.645Z,99986.09
2023-08-07T10:15:07.508Z,100001.19
2023-08-07T10:17:34.915Z,100002.38
2023-08-07T10:20:01.962Z,99996.66
2023-08-07T10:22:32.276Z,100001.00
2023-08-07T10:25:02.583Z,100008.72
2023-08-07T10:27:32.030Z,100007.38
2023-08-07T10:30:00.257Z,100006.88
2023-08-07T10:32:29.036Z,100021.44
2023-08-07T10:34:56.899Z,100018.94
2023-08-07T10:37:43.557Z,100015.41
2023-08-07T10:40:12.179Z,100019.78
2023-08-07T10:43:18.222Z,100030.16
2023-08-07T10:45:45.061Z,100023.28
2023-08-07T10:48:13.334Z,100020.09
2023-08-07T10:51:00.931Z,100028.16
2023-08-07T10:53:37.947Z,100023.63
2023-08-07T10:56:05.936Z,100029.50
2023-08-07T10:58:37.077Z,100021.78
2023-08-07T11:01:40.677Z,100026.66
2023-08-07T11:04:11.134Z,100021.13
2023-08-07T11:06:38.801Z,100027.63
2023-08-07T11:09:07.315Z,100032.66
2023-08-07T11:11:42.378Z,100031.47
2023-08-07T11:14:13.997Z,100036.19
2023-08-07T11:16:41.202Z,100025.31
2023-08-07T11:19:09.380Z,100037.69
2023-08-07T11:21:36.981Z,100050.44
2023-08-07T11:24:04.161Z,100036.53
2023-08-07T11:26:31.124Z,100048.59
2023-08-07T11:28:58.435Z,100047.94
2023-08-07T11:31:26.471Z,100047.75
2023-08-07T11:33:54.145Z,100047.25
2023-08-07T11:36:20.980Z,100053.63
2023-08-07T11:38:48.085Z,100041.41
2023-08-07T11:41:18.094Z,100041.72
2023-08-07T11:43:45.323Z,100060.00
2023-08-07T11:46:13.703Z,100051.47
2023-08-07T11:48:42.012Z,100053.47
2023-08-07T11:51:09.321Z,100060.84
2023-08-07T11:53:37.856Z,100058.31
2023-08-07T11:56:15.191Z,100056.66
2023-08-07T11:58:43.973Z,100062.00
2023-08-07T12:01:15.465Z,100056.66
2023-08-07T12:04:08.305Z,100063.53
2023-08-07T12:06:36.531Z,100072.06
2023-08-07T12:09:03.859Z,100072.06
2023-08-07T12:11:31.064Z,100073.91
2023-08-07T12:14:00.933Z,100069.38
2023-08-07T12:16:27.926Z,100066.34
2023-08-07T12:18:54.737Z,100067.56
2023-08-07T12:21:26.655Z,100061.50
2023-08-07T12:23:56.646Z,100069.22
2023-08-07T12:26:23.679Z,100070.56
2023-08-07T12:28:50.999Z,100073.56
2023-08-07T12:31:18.728Z,100072.56
2023-08-07T12:33:45.736Z,100069.38
2023-08-07T12:38:44.255Z,100059.16
2023-08-07T12:41:44.747Z,100055.09
2023-08-07T12:43:57.786Z,100056.97
2023-08-07T12:48:54.216Z,100058.13
2023-08-07T12:51:20.908Z,100052.94
2023-08-07T12:53:48.512Z,100059.00
2023-08-07T12:56:15.417Z,100058.47
2023-08-07T12:58:42.794Z,100059.31
2023-08-07T13:01:10.931Z,100059.97
2023-08-07T13:03:37.737Z,100068.03
2023-08-07T13:06:07.576Z,100064.34
2023-08-07T13:08:35.861Z,100060.16
2023-08-07T13:11:03.017Z,100056.94
2023-08-07T13:13:29.720Z,100064.00
2023-08-07T13:15:56.507Z,100063.66
2023-08-07T13:18:23.522Z,100068.50
2023-08-07T13:20:50.225Z,100069.19
2023-08-07T13:23:16.985Z,100059.63
2023-08-07T13:25:43.790Z,100061.47
2023-08-07T13:28:10.623Z,100064.31
2023-08-07T13:30:37.885Z,100064.81
2023-08-07T13:33:05.212Z,100060.94
2023-08-07T13:35:33.771Z,100059.75
2023-08-07T13:38:00.876Z,100061.63
2023-08-07T13:40:27.597Z,100052.91
2023-08-07T13:42:54.460Z,100053.25
2023-08-07T13:45:21.663Z,100047.06
2023-08-07T13:47:48.626Z,100054.06
2023-08-07T13:50:16.032Z,100053.09
2023-08-07T13:52:42.742Z,100052.75
2023-08-07T13:55:10.448Z,100051.72
2023-08-07T13:57:37.692Z,100045.38
2023-08-07T14:00:05.290Z,100049.69
2023-08-07T14:02:34.323Z,100047.84
2023-08-07T14:05:01.090Z,100047.34
2023-08-07T14:07:27.858Z,100049.66
2023-08-07T14:09:54.670Z,100050.81
2023-08-07T14:12:21.683Z,100054.16
2023-08-07T14:14:48.566Z,100063.06
2023-08-07T14:17:15.450Z,100055.00
2023-08-07T14:19:42.323Z,100055.00
2023-08-07T14:22:09.304Z,100053.66
2023-08-07T14:24:36.128Z,100051.44
2023-08-07T14:27:03.123Z,100051.75
2023-08-07T14:29:29.924Z,100046.91
2023-08-07T14:31:56.876Z,100051.91
2023-08-07T14:34:23.734Z,100048.03
2023-08-07T14:36:50.601Z,100050.72
2023-08-07T14:39:17.603Z,100044.00
2023-08-07T14:41:44.419Z,100046.69
2023-08-07T14:44:11.140Z,100042.81
2023-08-07T14:46:39.440Z,100044.47
2023-08-07T14:49:06.277Z,100039.41
2023-08-07T14:51:33.009Z,100037.25
2023-08-07T14:53:59.953Z,100031.97
2023-08-07T14:56:26.908Z,100032.66
2023-08-07T14:58:53.723Z,100037.66
2023-08-07T15:01:20.516Z,100026.59
2023-08-07T15:03:47.362Z,100028.47
2023-08-07T15:06:14.361Z,100030.13
2023-08-07T15:08:41.082Z,100033.16
2023-08-07T15:11:07.850Z,100034.56
2023-08-07T15:13:34.619Z,100033.88
2023-08-07T15:16:01.482Z,100029.19
2023-08-07T15:18:28.355Z,100034.56
2023-08-07T15:20:55.207Z,100021.81
2023-08-07T15:23:22.054Z,100028.69
2023-08-07T15:25:49.394Z,100032.03
2023-08-07T15:28:16.325Z,100018.44
2023-08-07T15:30:49.390Z,100026.81
2023-08-07T15:33:17.618Z,100032.19
2023-08-07T15:35:44.770Z,100021.47
2023-08-07T15:38:11.629Z,100020.47
2023-08-07T15:40:40.019Z,100026.50
2023-08-07T15:43:08.120Z,100027.50
2023-08-07T15:45:34.910Z,100028.88
2023-08-07T15:48:01.717Z,100020.97
2023-08-07T15:50:28.540Z,100025.69
2023-08-07T15:52:55.438Z,100022.34
2023-08-07T15:55:22.188Z,100030.59
2023-08-07T15:57:48.902Z,100027.06
2023-08-07T16:00:16.082Z,100031.56
2023-08-07T16:02:42.912Z,100029.25
2023-08-07T16:05:09.678Z,100027.91
2023-08-07T16:07:36.610Z,100026.63
2023-08-07T16:10:03.902Z,100021.59
2023-08-07T16:12:30.649Z,100024.28
2023-08-07T16:15:00.006Z,100023.78
2023-08-07T16:17:27.252Z,100024.13
2023-08-07T16:19:54.063Z,100018.09
2023-08-07T16:22:20.875Z,100018.63
2023-08-07T16:24:48.666Z,100021.66
2023-08-07T16:27:15.528Z,100020.34
2023-08-07T16:29:42.306Z,100027.72
2023-08-07T16:32:10.047Z,100038.09
2023-08-07T16:34:36.955Z,100036.94
2023-08-07T16:37:03.982Z,100027.84
2023-08-07T16:39:30.718Z,100015.47
2023-08-07T16:41:57.548Z,100018.13
2023-08-07T16:44:24.334Z,100017.31
2023-08-07T16:46:51.041Z,100022.69
2023-08-07T16:49:18.203Z,100014.97
2023-08-07T16:51:45.913Z,100027.53
2023-08-07T16:54:13.408Z,100029.38
2023-08-07T16:56:40.396Z,100031.09
2023-08-07T16:59:07.510Z,100028.72
2023-08-07T17:01:34.314Z,100023.53
2023-08-07T17:04:01.156Z,100025.88
2023-08-07T17:06:28.026Z,100030.22
2023-08-07T17:08:54.830Z,100023.66
2023-08-07T17:11:21.929Z,100023.50
2023-08-07T17:13:49.026Z,100027.69
2023-08-07T17:16:16.049Z,100025.16
2023-08-07T17:18:43.056Z,100023.50
2023-08-07T17:21:11.007Z,100026.19
2023-08-07T17:23:37.916Z,100020.00
2023-08-07T17:26:04.769Z,100020.97
2023-08-07T17:28:31.525Z,100021.84
2023-08-07T17:30:58.557Z,100029.22
2023-08-07T17:33:25.371Z,100028.41
2023-08-07T17:35:52.105Z,100026.03
2023-08-07T17:38:20.060Z,100025.41
2023-08-07T17:40:50.352Z,100021.03
2023-08-07T17:43:17.103Z,100030.94
2023-08-07T17:45:43.884Z,100029.44
2023-08-07T17:48:10.830Z,100029.78
2023-08-07T17:50:38.355Z,100033.44
2023-08-07T17:53:05.578Z,100033.44
2023-08-07T17:55:32.489Z,100036.31
2023-08-07T17:57:59.373Z,100035.50
2023-08-07T18:00:26.177Z,100029.09
2023-08-07T18:02:54.792Z,100039.69
2023-08-07T18:05:22.581Z,100036.81
2023-08-07T18:07:49.382Z,100036.81
2023-08-07T18:10:16.293Z,100041.34
2023-08-07T18:12:43.332Z,100045.03
2023-08-07T18:15:10.157Z,100036.31
2023-08-07T18:17:36.961Z,100045.34
2023-08-07T18:20:07.351Z,100049.22
2023-08-07T18:22:34.698Z,100049.75
2023-08-07T18:25:01.700Z,100048.06
2023-08-07T18:27:28.687Z,100054.25
2023-08-07T18:29:55.611Z,100054.63
2023-08-07T18:32:22.409Z,100048.56
2023-08-07T18:34:49.231Z,100055.31
2023-08-07T18:37:16.415Z,100051.25
2023-08-07T18:39:43.223Z,100042.06
2023-08-07T18:42:10.157Z,100045.75
2023-08-07T18:44:36.929Z,100053.13
2023-08-07T18:47:03.753Z,100054.31
2023-08-07T18:49:30.682Z,100055.47
2023-08-07T18:51:57.484Z,100064.50
2023-08-07T18:54:25.464Z,100061.00
2023-08-07T18:56:53.860Z,100069.03
2023-08-07T18:59:21.054Z,100070.06
2023-08-07T19:01:48.085Z,100066.50
2023-08-07T19:04:15.033Z,100072.91
2023-08-07T19:06:43.634Z,100062.31
2023-08-07T19:09:10.909Z,100064.53
2023-08-07T19:11:37.822Z,100065.34
2023-08-07T19:14:05.221Z,100075.25
2023-08-07T19:16:32.417Z,100077.78
2023-08-07T19:18:59.155Z,100079.78
2023-08-07T19:21:26.560Z,100083.28
2023-08-07T19:23:53.398Z,100084.31
2023-08-07T19:26:20.317Z,100088.81
2023-08-07T19:28:47.200Z,100087.28
2023-08-07T19:31:14.172Z,100087.28
2023-08-07T19:33:41.924Z,100091.16
2023-08-07T19:36:08.703Z,100100.22
2023-08-07T19:38:35.558Z,100096.03
2023-08-07T19:41:02.340Z,100099.72
2023-08-07T19:43:29.657Z,100102.56
2023-08-07T19:45:57.746Z,100104.41
2023-08-07T19:48:24.779Z,100104.56
2023-08-07T19:50:57.486Z,100095.00
2023-08-07T19:53:24.238Z,100103.72
2023-08-07T19:55:51.080Z,100104.41
2023-08-07T19:58:20.481Z,100105.06
2023-08-07T20:00:47.324Z,100101.72
2023-08-07T20:03:14.910Z,100100.69
2023-08-07T20:05:41.953Z,100104.41
2023-08-07T20:08:09.683Z,100106.25
2023-08-07T20:10:36.561Z,100102.06
2023-08-07T20:13:03.586Z,100095.19
2023-08-07T20:15:30.525Z,100095.19
2023-08-07T20:17:57.388Z,100089.16
2023-08-07T20:20:24.213Z,100090.81
2023-08-07T20:22:51.023Z,100092.00
2023-08-07T20:25:17.777Z,100078.59
2023-08-07T20:27:44.600Z,100077.75
2023-08-07T20:30:11.449Z,100079.59
2023-08-07T20:32:38.645Z,100086.63
2023-08-07T20:35:05.765Z,100079.41
2023-08-07T20:37:32.572Z,100083.94
2023-08-07T20:39:59.503Z,100078.78
2023-08-07T20:42:26.416Z,100081.44
2023-08-07T20:44:53.254Z,100089.50
2023-08-07T20:47:20.093Z,100078.09
2023-08-07T20:49:46.947Z,100083.59
2023-08-07T20:52:13.860Z,100088.13
2023-08-07T20:54:40.552Z,100086.47
2023-08-07T20:57:07.475Z,100081.44
2023-08-07T20:59:34.241Z,100074.41
2023-08-07T21:02:01.586Z,100067.38
2023-08-07T21:04:28.679Z,100071.03
2023-08-07T21:06:55.540Z,100069.38
2023-08-07T21:09:22.290Z,100069.53
2023-08-07T21:11:49.102Z,100074.06
2023-08-07T21:14:15.811Z,100081.25
2023-08-07T21:16:45.507Z,100078.59
2023-08-07T21:19:12.718Z,100080.44
2023-08-07T21:21:39.741Z,100079.75
2023-08-07T21:24:09.947Z,100077.91
2023-08-07T21:26:36.769Z,100082.44
2023-08-07T21:29:03.780Z,100075.22
2023-08-07T21:31:31.139Z,100072.72
2023-08-07T21:33:58.754Z,100070.03
2023-08-07T21:36:25.765Z,100068.22
2023-08-07T21:38:53.880Z,100070.03
2023-08-07T21:41:20.640Z,100072.06
2023-08-07T21:43:47.389Z,100071.19
2023-08-07T21:46:14.206Z,100077.72
2023-08-07T21:48:41.063Z,100071.53
2023-08-07T21:51:07.823Z,100071.53
2023-08-07T21:53:34.542Z,100071.72
2023-08-07T21:56:01.298Z,100070.03
2023-08-07T21:58:28.025Z,100071.72
2023-08-07T22:00:54.782Z,100063.84
2023-08-07T22:03:21.594Z,100062.19
2023-08-07T22:05:48.447Z,100065.84
2023-08-07T22:08:15.208Z,100060.66
2023-08-07T22:10:41.879Z,100056.97
2023-08-07T22:13:08.689Z,100056.97
2023-08-07T22:15:35.424Z,100052.28
2023-08-07T22:18:02.229Z,100050.59
2023-08-07T22:20:28.991Z,100065.50
2023-08-07T22:22:55.811Z,100062.19
2023-08-07T22:25:22.548Z,100050.44
2023-08-07T22:27:49.401Z,100052.09
2023-08-07T22:30:16.827Z,100046.94
2023-08-07T22:32:44.637Z,100054.97
2023-08-07T22:35:11.467Z,100048.78
2023-08-07T22:37:38.424Z,100055.13
2023-08-07T22:40:05.788Z,100054.28
2023-08-07T22:42:32.526Z,100054.44
2023-08-07T22:44:59.484Z,100059.81
2023-08-07T22:47:26.250Z,100056.47
2023-08-07T22:49:53.035Z,100063.50
2023-08-07T22:52:19.998Z,100055.59
2023-08-07T22:54:46.739Z,100047.75
2023-08-07T22:57:13.507Z,100055.13
2023-08-07T22:59:40.359Z,100055.13
2023-08-07T23:02:07.596Z,100043.72
2023-08-07T23:04:34.348Z,100051.41
2023-08-07T23:07:02.043Z,100048.09
2023-08-07T23:09:28.784Z,100037.53
2023-08-07T23:11:55.911Z,100043.03
2023-08-07T23:14:22.819Z,100046.59
2023-08-07T23:16:49.603Z,100043.22
2023-08-07T23:19:16.348Z,100039.72
2023-08-07T23:21:43.083Z,100039.03
2023-08-07T23:24:09.816Z,100043.38
2023-08-07T23:26:36.702Z,100048.91
2023-08-07T23:29:03.532Z,100044.22
2023-08-07T23:31:30.313Z,100046.25
2023-08-07T23:33:57.086Z,100039.19
2023-08-07T23:36:23.828Z,100044.72
2023-08-07T23:38:51.283Z,100040.22
2023-08-07T23:41:18.137Z,100037.69
2023-08-07T23:43:45.029Z,100043.22
2023-08-07T23:46:11.769Z,100036.69
2023-08-07T23:48:39.925Z,100027.81
2023-08-07T23:51:06.675Z,100029.50
2023-08-07T23:53:33.465Z,100025.13
2023-08-07T23:56:00.198Z,100024.97
2023-08-07T23:58:26.909Z,100031.34
